sensor_id;sensor_type;location;lat;lon;timestamp;temperature;humidity
17148;DHT22;8689;47.364;8.796;2023-06-19T00:00:52;17.30;82.40
17148;DHT22;8689;47.364;8.796;2023-06-19T00:03:20;17.30;83.10
17148;DHT22;8689;47.364;8.796;2023-06-19T00:05:47;17.30;83.00
17148;DHT22;8689;47.364;8.796;2023-06-19T00:08:14;17.30;82.90
17148;DHT22;8689;47.364;8.796;2023-06-19T00:10:41;17.30;82.70
17148;DHT22;8689;47.364;8.796;2023-06-19T00:13:08;17.30;82.50
17148;DHT22;8689;47.364;8.796;2023-06-19T00:15:37;17.30;82.30
17148;DHT22;8689;47.364;8.796;2023-06-19T00:18:04;17.40;82.80
17148;DHT22;8689;47.364;8.796;2023-06-19T00:20:34;17.30;83.30
17148;DHT22;8689;47.364;8.796;2023-06-19T00:23:01;17.20;83.00
17148;DHT22;8689;47.364;8.796;2023-06-19T00:25:29;17.20;82.30
17148;DHT22;8689;47.364;8.796;2023-06-19T00:27:56;17.20;83.10
17148;DHT22;8689;47.364;8.796;2023-06-19T00:30:23;17.10;83.30
17148;DHT22;8689;47.364;8.796;2023-06-19T00:32:52;17.00;84.10
17148;DHT22;8689;47.364;8.796;2023-06-19T00:35:20;16.90;84.80
17148;DHT22;8689;47.364;8.796;2023-06-19T00:37:47;16.80;86.00
17148;DHT22;8689;47.364;8.796;2023-06-19T00:40:21;16.80;86.50
17148;DHT22;8689;47.364;8.796;2023-06-19T00:42:51;16.70;86.70
17148;DHT22;8689;47.364;8.796;2023-06-19T00:45:18;16.70;87.40
17148;DHT22;8689;47.364;8.796;2023-06-19T00:47:45;16.70;88.10
17148;DHT22;8689;47.364;8.796;2023-06-19T00:50:14;16.70;89.00
17148;DHT22;8689;47.364;8.796;2023-06-19T00:52:43;16.70;88.90
17148;DHT22;8689;47.364;8.796;2023-06-19T00:55:10;16.70;89.90
17148;DHT22;8689;47.364;8.796;2023-06-19T00:57:38;16.60;90.00
17148;DHT22;8689;47.364;8.796;2023-06-19T01:00:07;16.80;89.60
17148;DHT22;8689;47.364;8.796;2023-06-19T01:02:35;16.80;90.00
17148;DHT22;8689;47.364;8.796;2023-06-19T01:05:02;16.80;90.00
17148;DHT22;8689;47.364;8.796;2023-06-19T01:07:37;16.80;89.50
17148;DHT22;8689;47.364;8.796;2023-06-19T01:10:12;16.90;88.90
17148;DHT22;8689;47.364;8.796;2023-06-19T01:12:44;16.90;89.00
17148;DHT22;8689;47.364;8.796;2023-06-19T01:15:16;16.90;88.90
17148;DHT22;8689;47.364;8.796;2023-06-19T01:17:45;16.90;88.60
17148;DHT22;8689;47.364;8.796;2023-06-19T01:20:13;17.00;88.50
17148;DHT22;8689;47.364;8.796;2023-06-19T01:22:43;17.00;89.10
17148;DHT22;8689;47.364;8.796;2023-06-19T01:25:11;16.90;89.60
17148;DHT22;8689;47.364;8.796;2023-06-19T01:27:40;16.90;89.50
17148;DHT22;8689;47.364;8.796;2023-06-19T01:30:09;16.90;89.70
17148;DHT22;8689;47.364;8.796;2023-06-19T01:32:44;16.90;89.30
17148;DHT22;8689;47.364;8.796;2023-06-19T01:35:16;17.00;89.20
17148;DHT22;8689;47.364;8.796;2023-06-19T01:37:47;17.00;88.70
17148;DHT22;8689;47.364;8.796;2023-06-19T01:40:15;17.00;89.50
17148;DHT22;8689;47.364;8.796;2023-06-19T01:42:46;17.10;88.10
17148;DHT22;8689;47.364;8.796;2023-06-19T01:45:14;17.30;89.40
17148;DHT22;8689;47.364;8.796;2023-06-19T01:47:41;17.40;90.10
17148;DHT22;8689;47.364;8.796;2023-06-19T01:50:09;17.50;89.60
17148;DHT22;8689;47.364;8.796;2023-06-19T01:52:38;17.50;89.60
17148;DHT22;8689;47.364;8.796;2023-06-19T01:55:08;17.50;90.50
17148;DHT22;8689;47.364;8.796;2023-06-19T01:57:36;17.50;90.80
17148;DHT22;8689;47.364;8.796;2023-06-19T02:00:04;17.40;90.90
17148;DHT22;8689;47.364;8.796;2023-06-19T02:02:33;17.50;90.90
17148;DHT22;8689;47.364;8.796;2023-06-19T02:05:00;17.50;90.80
17148;DHT22;8689;47.364;8.796;2023-06-19T02:07:28;17.50;91.10
17148;DHT22;8689;47.364;8.796;2023-06-19T02:09:55;17.50;91.20
17148;DHT22;8689;47.364;8.796;2023-06-19T02:12:24;17.40;91.30
17148;DHT22;8689;47.364;8.796;2023-06-19T02:14:51;17.40;91.50
17148;DHT22;8689;47.364;8.796;2023-06-19T02:17:19;17.40;91.60
17148;DHT22;8689;47.364;8.796;2023-06-19T02:19:46;17.40;91.90
17148;DHT22;8689;47.364;8.796;2023-06-19T02:22:13;17.50;91.50
17148;DHT22;8689;47.364;8.796;2023-06-19T02:24:40;17.60;91.00
17148;DHT22;8689;47.364;8.796;2023-06-19T02:27:10;17.70;90.80
17148;DHT22;8689;47.364;8.796;2023-06-19T02:29:39;17.80;91.10
17148;DHT22;8689;47.364;8.796;2023-06-19T02:32:06;18.00;91.00
17148;DHT22;8689;47.364;8.796;2023-06-19T02:34:33;18.00;92.60
17148;DHT22;8689;47.364;8.796;2023-06-19T02:37:01;18.20;93.00
17148;DHT22;8689;47.364;8.796;2023-06-19T02:39:29;18.30;92.80
17148;DHT22;8689;47.364;8.796;2023-06-19T02:41:57;18.50;93.40
17148;DHT22;8689;47.364;8.796;2023-06-19T02:44:24;18.70;93.30
17148;DHT22;8689;47.364;8.796;2023-06-19T02:46:54;18.70;93.00
17148;DHT22;8689;47.364;8.796;2023-06-19T02:49:22;18.80;93.30
17148;DHT22;8689;47.364;8.796;2023-06-19T02:51:49;18.80;93.50
17148;DHT22;8689;47.364;8.796;2023-06-19T02:54:17;18.80;93.70
17148;DHT22;8689;47.364;8.796;2023-06-19T02:56:44;18.80;94.00
17148;DHT22;8689;47.364;8.796;2023-06-19T02:59:11;18.70;94.60
17148;DHT22;8689;47.364;8.796;2023-06-19T03:01:38;18.80;95.20
17148;DHT22;8689;47.364;8.796;2023-06-19T03:04:07;18.70;95.70
17148;DHT22;8689;47.364;8.796;2023-06-19T03:06:34;18.70;96.10
17148;DHT22;8689;47.364;8.796;2023-06-19T03:09:05;18.70;96.40
17148;DHT22;8689;47.364;8.796;2023-06-19T03:11:37;18.70;97.20
17148;DHT22;8689;47.364;8.796;2023-06-19T03:14:05;18.80;98.50
17148;DHT22;8689;47.364;8.796;2023-06-19T03:16:33;18.60;99.90
17148;DHT22;8689;47.364;8.796;2023-06-19T03:19:02;18.20;99.90
17148;DHT22;8689;47.364;8.796;2023-06-19T03:21:31;17.80;99.90
17148;DHT22;8689;47.364;8.796;2023-06-19T03:23:59;17.50;99.90
17148;DHT22;8689;47.364;8.796;2023-06-19T03:26:27;17.30;99.90
17148;DHT22;8689;47.364;8.796;2023-06-19T03:28:55;17.10;99.90
17148;DHT22;8689;47.364;8.796;2023-06-19T03:31:23;17.00;99.90
17148;DHT22;8689;47.364;8.796;2023-06-19T03:33:51;16.90;99.90
17148;DHT22;8689;47.364;8.796;2023-06-19T03:36:18;16.80;99.90
17148;DHT22;8689;47.364;8.796;2023-06-19T03:38:47;16.70;99.90
17148;DHT22;8689;47.364;8.796;2023-06-19T03:41:15;16.60;99.90
17148;DHT22;8689;47.364;8.796;2023-06-19T03:43:42;16.60;99.90
17148;DHT22;8689;47.364;8.796;2023-06-19T03:46:10;16.60;99.90
17148;DHT22;8689;47.364;8.796;2023-06-19T03:48:37;16.60;99.90
17148;DHT22;8689;47.364;8.796;2023-06-19T03:51:04;16.70;99.90
17148;DHT22;8689;47.364;8.796;2023-06-19T03:53:32;16.70;99.90
17148;DHT22;8689;47.364;8.796;2023-06-19T03:56:00;16.80;99.90
17148;DHT22;8689;47.364;8.796;2023-06-19T03:58:27;16.80;99.90
17148;DHT22;8689;47.364;8.796;2023-06-19T04:00:54;16.80;99.90
17148;DHT22;8689;47.364;8.796;2023-06-19T04:03:22;16.80;99.90
17148;DHT22;8689;47.364;8.796;2023-06-19T04:05:50;16.80;99.90
17148;DHT22;8689;47.364;8.796;2023-06-19T04:08:18;16.80;99.90
17148;DHT22;8689;47.364;8.796;2023-06-19T04:10:45;16.80;99.90
17148;DHT22;8689;47.364;8.796;2023-06-19T04:13:13;16.70;99.90
17148;DHT22;8689;47.364;8.796;2023-06-19T04:15:41;16.70;99.90
17148;DHT22;8689;47.364;8.796;2023-06-19T04:18:10;16.70;99.90
17148;DHT22;8689;47.364;8.796;2023-06-19T04:20:37;16.70;99.90
17148;DHT22;8689;47.364;8.796;2023-06-19T04:23:06;16.80;99.90
17148;DHT22;8689;47.364;8.796;2023-06-19T04:25:33;16.80;99.90
17148;DHT22;8689;47.364;8.796;2023-06-19T04:28:00;16.90;99.90
17148;DHT22;8689;47.364;8.796;2023-06-19T04:30:31;16.90;99.90
17148;DHT22;8689;47.364;8.796;2023-06-19T04:32:59;16.90;99.90
17148;DHT22;8689;47.364;8.796;2023-06-19T04:35:26;16.90;99.90
17148;DHT22;8689;47.364;8.796;2023-06-19T04:37:54;16.90;99.90
17148;DHT22;8689;47.364;8.796;2023-06-19T04:40:22;16.90;99.90
17148;DHT22;8689;47.364;8.796;2023-06-19T04:42:52;16.80;99.90
17148;DHT22;8689;47.364;8.796;2023-06-19T04:45:20;16.80;99.90
17148;DHT22;8689;47.364;8.796;2023-06-19T04:47:49;16.80;99.90
17148;DHT22;8689;47.364;8.796;2023-06-19T04:50:16;16.80;99.90
17148;DHT22;8689;47.364;8.796;2023-06-19T04:52:43;16.90;99.90
17148;DHT22;8689;47.364;8.796;2023-06-19T04:55:10;16.80;99.90
17148;DHT22;8689;47.364;8.796;2023-06-19T04:57:37;16.90;99.90
17148;DHT22;8689;47.364;8.796;2023-06-19T05:00:06;16.90;99.90
17148;DHT22;8689;47.364;8.796;2023-06-19T05:02:35;17.00;99.90
17148;DHT22;8689;47.364;8.796;2023-06-19T05:05:05;17.00;99.90
17148;DHT22;8689;47.364;8.796;2023-06-19T05:07:32;17.10;99.90
17148;DHT22;8689;47.364;8.796;2023-06-19T05:09:59;17.10;99.90
17148;DHT22;8689;47.364;8.796;2023-06-19T05:12:27;17.10;99.90
17148;DHT22;8689;47.364;8.796;2023-06-19T05:14:55;17.10;99.90
17148;DHT22;8689;47.364;8.796;2023-06-19T05:17:23;17.10;99.90
17148;DHT22;8689;47.364;8.796;2023-06-19T05:19:57;17.20;99.90
17148;DHT22;8689;47.364;8.796;2023-06-19T05:22:39;17.20;99.90
17148;DHT22;8689;47.364;8.796;2023-06-19T05:25:20;17.20;99.90
17148;DHT22;8689;47.364;8.796;2023-06-19T05:28:01;17.20;99.90
17148;DHT22;8689;47.364;8.796;2023-06-19T05:30:30;17.10;99.90
17148;DHT22;8689;47.364;8.796;2023-06-19T05:33:01;17.10;99.90
17148;DHT22;8689;47.364;8.796;2023-06-19T05:35:35;17.10;99.90
17148;DHT22;8689;47.364;8.796;2023-06-19T05:38:05;17.20;99.90
17148;DHT22;8689;47.364;8.796;2023-06-19T05:40:47;17.10;99.90
17148;DHT22;8689;47.364;8.796;2023-06-19T05:43:32;17.10;99.90
17148;DHT22;8689;47.364;8.796;2023-06-19T05:46:29;17.10;99.90
17148;DHT22;8689;47.364;8.796;2023-06-19T05:49:08;17.00;99.90
17148;DHT22;8689;47.364;8.796;2023-06-19T05:51:36;17.00;99.90
17148;DHT22;8689;47.364;8.796;2023-06-19T05:54:22;17.00;99.90
17148;DHT22;8689;47.364;8.796;2023-06-19T05:56:50;17.00;99.90
17148;DHT22;8689;47.364;8.796;2023-06-19T05:59:17;17.00;99.90
17148;DHT22;8689;47.364;8.796;2023-06-19T06:01:45;17.00;99.90
17148;DHT22;8689;47.364;8.796;2023-06-19T06:04:13;17.00;99.90
17148;DHT22;8689;47.364;8.796;2023-06-19T06:06:40;16.90;99.90
17148;DHT22;8689;47.364;8.796;2023-06-19T06:09:08;16.90;99.90
17148;DHT22;8689;47.364;8.796;2023-06-19T06:15:04;16.90;99.90
17148;DHT22;8689;47.364;8.796;2023-06-19T06:17:32;16.90;99.90
17148;DHT22;8689;47.364;8.796;2023-06-19T06:19:59;16.90;99.90
17148;DHT22;8689;47.364;8.796;2023-06-19T06:22:27;16.90;99.90
17148;DHT22;8689;47.364;8.796;2023-06-19T06:24:55;16.90;99.90
17148;DHT22;8689;47.364;8.796;2023-06-19T06:27:22;16.90;99.90
17148;DHT22;8689;47.364;8.796;2023-06-19T06:29:49;17.00;99.90
17148;DHT22;8689;47.364;8.796;2023-06-19T06:32:18;17.10;99.90
17148;DHT22;8689;47.364;8.796;2023-06-19T06:34:46;17.10;99.90
17148;DHT22;8689;47.364;8.796;2023-06-19T06:37:13;17.20;99.90
17148;DHT22;8689;47.364;8.796;2023-06-19T06:39:41;17.30;99.90
17148;DHT22;8689;47.364;8.796;2023-06-19T06:42:08;17.40;99.90
17148;DHT22;8689;47.364;8.796;2023-06-19T06:44:36;17.50;99.90
17148;DHT22;8689;47.364;8.796;2023-06-19T06:47:06;17.50;99.90
17148;DHT22;8689;47.364;8.796;2023-06-19T06:49:35;17.60;99.90
17148;DHT22;8689;47.364;8.796;2023-06-19T06:52:03;17.70;99.90
17148;DHT22;8689;47.364;8.796;2023-06-19T06:54:31;17.80;99.90
17148;DHT22;8689;47.364;8.796;2023-06-19T06:56:58;18.00;99.90
17148;DHT22;8689;47.364;8.796;2023-06-19T06:59:26;18.30;99.90
17148;DHT22;8689;47.364;8.796;2023-06-19T07:01:54;18.50;99.90
17148;DHT22;8689;47.364;8.796;2023-06-19T07:04:22;18.70;99.90
17148;DHT22;8689;47.364;8.796;2023-06-19T07:06:51;18.90;99.90
17148;DHT22;8689;47.364;8.796;2023-06-19T07:09:19;19.10;99.90
17148;DHT22;8689;47.364;8.796;2023-06-19T07:11:47;19.20;99.90
17148;DHT22;8689;47.364;8.796;2023-06-19T07:14:15;19.30;99.90
17148;DHT22;8689;47.364;8.796;2023-06-19T07:16:44;19.50;99.90
17148;DHT22;8689;47.364;8.796;2023-06-19T07:19:14;19.80;99.90
17148;DHT22;8689;47.364;8.796;2023-06-19T07:21:41;20.10;99.90
17148;DHT22;8689;47.364;8.796;2023-06-19T07:24:16;20.50;99.90
17148;DHT22;8689;47.364;8.796;2023-06-19T07:26:46;20.90;99.90
17148;DHT22;8689;47.364;8.796;2023-06-19T07:29:14;21.20;99.90
17148;DHT22;8689;47.364;8.796;2023-06-19T07:31:42;21.40;99.90
17148;DHT22;8689;47.364;8.796;2023-06-19T07:34:09;21.40;99.90
17148;DHT22;8689;47.364;8.796;2023-06-19T07:36:37;21.40;99.90
17148;DHT22;8689;47.364;8.796;2023-06-19T07:39:05;21.50;99.90
17148;DHT22;8689;47.364;8.796;2023-06-19T07:41:34;21.50;99.90
17148;DHT22;8689;47.364;8.796;2023-06-19T07:44:03;21.60;99.90
17148;DHT22;8689;47.364;8.796;2023-06-19T07:46:30;21.80;99.90
17148;DHT22;8689;47.364;8.796;2023-06-19T07:49:13;22.10;99.90
17148;DHT22;8689;47.364;8.796;2023-06-19T07:51:40;22.60;99.90
17148;DHT22;8689;47.364;8.796;2023-06-19T07:54:09;22.90;99.90
17148;DHT22;8689;47.364;8.796;2023-06-19T07:56:38;23.00;99.90
17148;DHT22;8689;47.364;8.796;2023-06-19T07:59:07;23.40;99.90
17148;DHT22;8689;47.364;8.796;2023-06-19T08:01:35;23.60;99.90
17148;DHT22;8689;47.364;8.796;2023-06-19T08:04:06;23.70;99.20
17148;DHT22;8689;47.364;8.796;2023-06-19T08:06:35;23.90;97.40
17148;DHT22;8689;47.364;8.796;2023-06-19T08:09:03;24.20;98.70
17148;DHT22;8689;47.364;8.796;2023-06-19T08:11:32;24.20;97.60
17148;DHT22;8689;47.364;8.796;2023-06-19T08:14:04;24.60;96.80
17148;DHT22;8689;47.364;8.796;2023-06-19T08:16:33;24.80;89.20
17148;DHT22;8689;47.364;8.796;2023-06-19T08:19:01;25.20;83.60
17148;DHT22;8689;47.364;8.796;2023-06-19T08:21:30;25.50;80.20
17148;DHT22;8689;47.364;8.796;2023-06-19T08:23:58;26.00;80.60
17148;DHT22;8689;47.364;8.796;2023-06-19T08:26:41;26.50;79.20
17148;DHT22;8689;47.364;8.796;2023-06-19T08:29:18;27.10;72.60
17148;DHT22;8689;47.364;8.796;2023-06-19T08:31:45;27.50;71.40
17148;DHT22;8689;47.364;8.796;2023-06-19T08:34:14;27.50;69.50
17148;DHT22;8689;47.364;8.796;2023-06-19T08:36:43;27.40;68.90
17148;DHT22;8689;47.364;8.796;2023-06-19T08:39:12;27.50;72.10
17148;DHT22;8689;47.364;8.796;2023-06-19T08:41:40;27.50;70.40
17148;DHT22;8689;47.364;8.796;2023-06-19T08:44:08;27.70;69.60
17148;DHT22;8689;47.364;8.796;2023-06-19T08:46:39;27.80;67.50
17148;DHT22;8689;47.364;8.796;2023-06-19T08:49:08;27.90;68.90
17148;DHT22;8689;47.364;8.796;2023-06-19T08:51:37;28.20;69.00
17148;DHT22;8689;47.364;8.796;2023-06-19T08:54:07;28.40;65.30
17148;DHT22;8689;47.364;8.796;2023-06-19T08:56:41;28.60;64.50
17148;DHT22;8689;47.364;8.796;2023-06-19T08:59:09;28.80;64.70
17148;DHT22;8689;47.364;8.796;2023-06-19T09:01:46;29.10;62.30
17148;DHT22;8689;47.364;8.796;2023-06-19T09:04:19;29.20;59.90
17148;DHT22;8689;47.364;8.796;2023-06-19T09:07:09;29.20;60.20
17148;DHT22;8689;47.364;8.796;2023-06-19T09:09:44;29.40;59.70
17148;DHT22;8689;47.364;8.796;2023-06-19T09:12:13;29.60;61.60
17148;DHT22;8689;47.364;8.796;2023-06-19T09:14:45;29.60;57.70
17148;DHT22;8689;47.364;8.796;2023-06-19T09:17:18;29.60;58.40
17148;DHT22;8689;47.364;8.796;2023-06-19T09:19:50;29.80;57.70
17148;DHT22;8689;47.364;8.796;2023-06-19T09:22:18;29.90;57.20
17148;DHT22;8689;47.364;8.796;2023-06-19T09:24:48;30.00;58.20
17148;DHT22;8689;47.364;8.796;2023-06-19T09:27:17;30.10;58.60
17148;DHT22;8689;47.364;8.796;2023-06-19T09:29:45;30.20;55.90
17148;DHT22;8689;47.364;8.796;2023-06-19T09:32:20;29.90;57.80
17148;DHT22;8689;47.364;8.796;2023-06-19T09:34:50;29.80;60.10
17148;DHT22;8689;47.364;8.796;2023-06-19T09:37:22;30.00;62.20
17148;DHT22;8689;47.364;8.796;2023-06-19T09:39:52;30.10;61.80
17148;DHT22;8689;47.364;8.796;2023-06-19T09:42:24;29.90;64.30
17148;DHT22;8689;47.364;8.796;2023-06-19T09:44:58;29.50;63.60
17148;DHT22;8689;47.364;8.796;2023-06-19T09:47:30;29.20;65.10
17148;DHT22;8689;47.364;8.796;2023-06-19T09:49:59;29.20;62.80
17148;DHT22;8689;47.364;8.796;2023-06-19T09:52:28;29.20;63.60
17148;DHT22;8689;47.364;8.796;2023-06-19T09:54:56;29.20;62.00
17148;DHT22;8689;47.364;8.796;2023-06-19T09:57:24;29.40;63.40
17148;DHT22;8689;47.364;8.796;2023-06-19T09:59:53;29.60;60.30
17148;DHT22;8689;47.364;8.796;2023-06-19T10:02:22;29.90;60.10
17148;DHT22;8689;47.364;8.796;2023-06-19T10:04:54;30.10;60.60
17148;DHT22;8689;47.364;8.796;2023-06-19T10:07:23;30.30;58.70
17148;DHT22;8689;47.364;8.796;2023-06-19T10:09:56;30.50;58.40
17148;DHT22;8689;47.364;8.796;2023-06-19T10:12:37;30.80;59.20
17148;DHT22;8689;47.364;8.796;2023-06-19T10:15:15;31.10;57.00
17148;DHT22;8689;47.364;8.796;2023-06-19T10:17:44;31.30;56.30
17148;DHT22;8689;47.364;8.796;2023-06-19T10:20:24;31.60;55.80
17148;DHT22;8689;47.364;8.796;2023-06-19T10:22:57;31.80;55.90
17148;DHT22;8689;47.364;8.796;2023-06-19T10:25:28;31.90;54.80
17148;DHT22;8689;47.364;8.796;2023-06-19T10:27:55;31.90;52.90
17148;DHT22;8689;47.364;8.796;2023-06-19T10:30:23;31.70;54.30
17148;DHT22;8689;47.364;8.796;2023-06-19T10:32:50;31.50;54.50
17148;DHT22;8689;47.364;8.796;2023-06-19T10:35:18;31.60;54.10
17148;DHT22;8689;47.364;8.796;2023-06-19T10:37:49;31.80;54.30
17148;DHT22;8689;47.364;8.796;2023-06-19T10:40:17;31.90;53.50
17148;DHT22;8689;47.364;8.796;2023-06-19T10:42:44;31.90;52.20
17148;DHT22;8689;47.364;8.796;2023-06-19T10:45:13;32.10;53.10
17148;DHT22;8689;47.364;8.796;2023-06-19T10:47:42;32.20;51.80
17148;DHT22;8689;47.364;8.796;2023-06-19T10:50:13;32.20;51.20
17148;DHT22;8689;47.364;8.796;2023-06-19T10:52:43;32.20;52.60
17148;DHT22;8689;47.364;8.796;2023-06-19T10:55:15;32.20;52.30
17148;DHT22;8689;47.364;8.796;2023-06-19T10:57:48;32.10;52.40
17148;DHT22;8689;47.364;8.796;2023-06-19T11:00:24;32.10;52.80
17148;DHT22;8689;47.364;8.796;2023-06-19T11:02:51;32.20;50.40
17148;DHT22;8689;47.364;8.796;2023-06-19T11:05:23;32.30;49.60
17148;DHT22;8689;47.364;8.796;2023-06-19T11:07:55;32.40;45.70
17148;DHT22;8689;47.364;8.796;2023-06-19T11:10:29;32.50;41.60
17148;DHT22;8689;47.364;8.796;2023-06-19T11:12:58;32.40;42.40
17148;DHT22;8689;47.364;8.796;2023-06-19T11:15:30;32.20;43.00
17148;DHT22;8689;47.364;8.796;2023-06-19T11:17:58;31.80;45.30
17148;DHT22;8689;47.364;8.796;2023-06-19T11:20:26;31.80;46.80
17148;DHT22;8689;47.364;8.796;2023-06-19T11:22:58;31.90;45.70
17148;DHT22;8689;47.364;8.796;2023-06-19T11:25:36;32.00;45.30
17148;DHT22;8689;47.364;8.796;2023-06-19T11:28:12;32.30;46.20
17148;DHT22;8689;47.364;8.796;2023-06-19T11:30:41;32.50;45.40
17148;DHT22;8689;47.364;8.796;2023-06-19T11:33:17;32.40;43.60
17148;DHT22;8689;47.364;8.796;2023-06-19T11:35:54;32.30;42.60
17148;DHT22;8689;47.364;8.796;2023-06-19T11:38:23;32.20;46.10
17148;DHT22;8689;47.364;8.796;2023-06-19T11:40:54;32.30;45.90
17148;DHT22;8689;47.364;8.796;2023-06-19T11:43:25;32.50;45.40
17148;DHT22;8689;47.364;8.796;2023-06-19T11:45:53;32.60;44.10
17148;DHT22;8689;47.364;8.796;2023-06-19T11:48:25;32.90;43.40
17148;DHT22;8689;47.364;8.796;2023-06-19T11:50:54;33.10;44.60
17148;DHT22;8689;47.364;8.796;2023-06-19T11:53:24;33.30;43.00
17148;DHT22;8689;47.364;8.796;2023-06-19T11:55:53;33.60;43.30
17148;DHT22;8689;47.364;8.796;2023-06-19T11:58:20;34.00;42.20
17148;DHT22;8689;47.364;8.796;2023-06-19T12:00:48;34.00;42.00
17148;DHT22;8689;47.364;8.796;2023-06-19T12:03:15;33.90;41.60
17148;DHT22;8689;47.364;8.796;2023-06-19T12:05:43;33.90;42.00
17148;DHT22;8689;47.364;8.796;2023-06-19T12:08:11;34.00;41.90
17148;DHT22;8689;47.364;8.796;2023-06-19T12:10:38;34.00;43.40
17148;DHT22;8689;47.364;8.796;2023-06-19T12:13:07;34.00;42.60
17148;DHT22;8689;47.364;8.796;2023-06-19T12:15:34;33.80;42.80
17148;DHT22;8689;47.364;8.796;2023-06-19T12:18:02;33.90;43.60
17148;DHT22;8689;47.364;8.796;2023-06-19T12:20:29;34.10;44.60
17148;DHT22;8689;47.364;8.796;2023-06-19T12:22:57;34.30;43.80
17148;DHT22;8689;47.364;8.796;2023-06-19T12:25:24;34.50;43.60
17148;DHT22;8689;47.364;8.796;2023-06-19T12:27:51;35.00;41.00
17148;DHT22;8689;47.364;8.796;2023-06-19T12:30:20;35.00;40.70
17148;DHT22;8689;47.364;8.796;2023-06-19T12:32:48;34.80;40.50
17148;DHT22;8689;47.364;8.796;2023-06-19T12:35:15;34.40;41.30
17148;DHT22;8689;47.364;8.796;2023-06-19T12:37:43;34.20;44.10
17148;DHT22;8689;47.364;8.796;2023-06-19T12:40:12;34.10;43.80
17148;DHT22;8689;47.364;8.796;2023-06-19T12:42:39;33.80;44.80
17148;DHT22;8689;47.364;8.796;2023-06-19T12:45:08;33.90;44.80
17148;DHT22;8689;47.364;8.796;2023-06-19T12:47:38;34.30;42.80
17148;DHT22;8689;47.364;8.796;2023-06-19T12:50:10;34.00;41.60
17148;DHT22;8689;47.364;8.796;2023-06-19T12:52:40;34.00;44.20
17148;DHT22;8689;47.364;8.796;2023-06-19T12:55:10;34.00;43.00
17148;DHT22;8689;47.364;8.796;2023-06-19T12:57:38;34.30;42.30
17148;DHT22;8689;47.364;8.796;2023-06-19T13:00:09;34.30;43.90
17148;DHT22;8689;47.364;8.796;2023-06-19T13:02:39;34.60;43.70
17148;DHT22;8689;47.364;8.796;2023-06-19T13:05:09;34.90;43.50
17148;DHT22;8689;47.364;8.796;2023-06-19T13:07:36;35.40;40.70
17148;DHT22;8689;47.364;8.796;2023-06-19T13:10:04;35.90;41.40
17148;DHT22;8689;47.364;8.796;2023-06-19T13:12:31;36.10;39.60
17148;DHT22;8689;47.364;8.796;2023-06-19T13:14:58;36.30;38.20
17148;DHT22;8689;47.364;8.796;2023-06-19T13:17:25;36.60;38.90
17148;DHT22;8689;47.364;8.796;2023-06-19T13:19:54;36.60;39.10
17148;DHT22;8689;47.364;8.796;2023-06-19T13:22:22;36.50;39.30
17148;DHT22;8689;47.364;8.796;2023-06-19T13:24:49;36.80;38.20
17148;DHT22;8689;47.364;8.796;2023-06-19T13:27:16;37.10;36.80
17148;DHT22;8689;47.364;8.796;2023-06-19T13:29:43;37.00;37.80
17148;DHT22;8689;47.364;8.796;2023-06-19T13:32:11;37.10;37.50
17148;DHT22;8689;47.364;8.796;2023-06-19T13:34:38;37.10;36.70
17148;DHT22;8689;47.364;8.796;2023-06-19T13:37:12;36.90;37.90
17148;DHT22;8689;47.364;8.796;2023-06-19T13:39:41;36.70;38.10
17148;DHT22;8689;47.364;8.796;2023-06-19T13:42:08;36.20;39.00
17148;DHT22;8689;47.364;8.796;2023-06-19T13:44:42;36.30;37.50
17148;DHT22;8689;47.364;8.796;2023-06-19T13:47:09;36.50;36.20
17148;DHT22;8689;47.364;8.796;2023-06-19T13:49:36;36.40;38.60
17148;DHT22;8689;47.364;8.796;2023-06-19T13:52:04;36.60;36.40
17148;DHT22;8689;47.364;8.796;2023-06-19T13:54:33;36.40;37.20
17148;DHT22;8689;47.364;8.796;2023-06-19T13:57:00;36.70;35.90
17148;DHT22;8689;47.364;8.796;2023-06-19T13:59:28;36.80;36.50
17148;DHT22;8689;47.364;8.796;2023-06-19T14:01:55;36.30;37.10
17148;DHT22;8689;47.364;8.796;2023-06-19T14:04:23;35.70;39.10
17148;DHT22;8689;47.364;8.796;2023-06-19T14:06:50;35.20;38.00
17148;DHT22;8689;47.364;8.796;2023-06-19T14:09:17;34.50;38.10
17148;DHT22;8689;47.364;8.796;2023-06-19T14:11:46;33.80;39.20
17148;DHT22;8689;47.364;8.796;2023-06-19T14:14:14;33.00;40.50
17148;DHT22;8689;47.364;8.796;2023-06-19T14:16:41;32.40;42.30
17148;DHT22;8689;47.364;8.796;2023-06-19T14:19:08;32.10;42.90
17148;DHT22;8689;47.364;8.796;2023-06-19T14:21:35;31.60;43.40
17148;DHT22;8689;47.364;8.796;2023-06-19T14:24:03;31.30;46.20
17148;DHT22;8689;47.364;8.796;2023-06-19T14:26:30;30.90;46.80
17148;DHT22;8689;47.364;8.796;2023-06-19T14:28:59;30.60;47.30
17148;DHT22;8689;47.364;8.796;2023-06-19T14:31:27;30.40;48.50
17148;DHT22;8689;47.364;8.796;2023-06-19T14:33:54;30.20;48.60
17148;DHT22;8689;47.364;8.796;2023-06-19T14:36:21;30.00;48.40
17148;DHT22;8689;47.364;8.796;2023-06-19T14:38:48;29.70;49.10
17148;DHT22;8689;47.364;8.796;2023-06-19T14:41:15;29.60;48.70
17148;DHT22;8689;47.364;8.796;2023-06-19T14:43:42;29.50;48.70
17148;DHT22;8689;47.364;8.796;2023-06-19T14:46:11;29.40;51.10
17148;DHT22;8689;47.364;8.796;2023-06-19T14:48:38;29.40;49.40
17148;DHT22;8689;47.364;8.796;2023-06-19T14:51:05;29.30;49.20
17148;DHT22;8689;47.364;8.796;2023-06-19T14:53:35;29.40;50.00
17148;DHT22;8689;47.364;8.796;2023-06-19T14:56:02;29.60;50.20
17148;DHT22;8689;47.364;8.796;2023-06-19T14:58:30;29.80;49.90
17148;DHT22;8689;47.364;8.796;2023-06-19T15:00:57;29.80;49.40
17148;DHT22;8689;47.364;8.796;2023-06-19T15:03:26;29.80;47.80
17148;DHT22;8689;47.364;8.796;2023-06-19T15:05:54;29.70;48.20
17148;DHT22;8689;47.364;8.796;2023-06-19T15:08:21;29.40;48.60
17148;DHT22;8689;47.364;8.796;2023-06-19T15:10:49;29.10;50.00
17148;DHT22;8689;47.364;8.796;2023-06-19T15:13:16;28.90;50.30
17148;DHT22;8689;47.364;8.796;2023-06-19T15:15:44;28.80;51.30
17148;DHT22;8689;47.364;8.796;2023-06-19T15:18:14;28.60;52.10
17148;DHT22;8689;47.364;8.796;2023-06-19T15:20:42;28.60;52.00
17148;DHT22;8689;47.364;8.796;2023-06-19T15:23:09;28.70;53.20
17148;DHT22;8689;47.364;8.796;2023-06-19T15:25:36;28.80;53.30
17148;DHT22;8689;47.364;8.796;2023-06-19T15:28:03;28.80;54.80
17148;DHT22;8689;47.364;8.796;2023-06-19T15:30:31;28.90;54.80
17148;DHT22;8689;47.364;8.796;2023-06-19T15:32:58;28.90;54.40
17148;DHT22;8689;47.364;8.796;2023-06-19T15:35:25;28.90;53.80
17148;DHT22;8689;47.364;8.796;2023-06-19T15:37:53;28.90;52.40
17148;DHT22;8689;47.364;8.796;2023-06-19T15:40:23;29.20;51.70
17148;DHT22;8689;47.364;8.796;2023-06-19T15:42:51;29.40;50.40
17148;DHT22;8689;47.364;8.796;2023-06-19T15:45:18;29.20;54.10
17148;DHT22;8689;47.364;8.796;2023-06-19T15:47:45;28.50;58.90
17148;DHT22;8689;47.364;8.796;2023-06-19T15:50:12;27.80;62.80
17148;DHT22;8689;47.364;8.796;2023-06-19T15:52:39;27.30;67.40
17148;DHT22;8689;47.364;8.796;2023-06-19T15:55:08;27.10;68.70
17148;DHT22;8689;47.364;8.796;2023-06-19T15:57:35;27.70;66.50
17148;DHT22;8689;47.364;8.796;2023-06-19T16:00:03;28.60;65.00